Wetterdaten: aktuell Freitag, 05.06.2020 10:56
Datum Zeit Temperatur Feuchte A. Luftdruck Regen Wind Richtung Richtung Taupunkt Windchill Windben
05.06.2020 10:56 8,8 C 98 % 999,4 hPa 0,0 l/m 0,5 km/h (0 Bft) SO 146 8,5 C 8,8 C 3,2 km/h (1 Bft)
05.06.2020 10:55 8,9 C 98 % 999,4 hPa 0,0 l/m 1,5 km/h (1 Bft) SO 146 8,6 C 8,9 C 6,4 km/h (2 Bft)
05.06.2020 10:54 8,9 C 98 % 999,3 hPa 0,0 l/m 1,8 km/h (1 Bft) N-NO 16 8,6 C 8,9 C 6,4 km/h (2 Bft)
05.06.2020 10:53 9,0 C 98 % 999,3 hPa 0,0 l/m 2,7 km/h (1 Bft) W 273 8,7 C 9,0 C 9,7 km/h (2 Bft)
05.06.2020 10:52 9,1 C 98 % 999,3 hPa 0,0 l/m 1,2 km/h (1 Bft) O-NO 78 8,8 C 9,1 C 3,2 km/h (1 Bft)
05.06.2020 10:51 9,1 C 98 % 999,2 hPa 0,0 l/m 3,6 km/h (1 Bft) N-NO 26 8,8 C 9,1 C 9,7 km/h (2 Bft)
05.06.2020 10:50 9,2 C 98 % 999,3 hPa 0,0 l/m 3,2 km/h (1 Bft) N 355 8,9 C 9,2 C 8,0 km/h (2 Bft)
05.06.2020 10:49 9,2 C 98 % 999,4 hPa 0,0 l/m 2,2 km/h (1 Bft) N-NO 30 8,9 C 9,2 C 6,4 km/h (2 Bft)
05.06.2020 10:48 9,0 C 98 % 999,3 hPa 0,0 l/m 5,0 km/h (1 Bft) NW 310 8,7 C 8,6 C 8,0 km/h (2 Bft)
05.06.2020 10:47 8,8 C 98 % 999,4 hPa 0,0 l/m 2,7 km/h (1 Bft) S 188 8,5 C 8,8 C 11,3 km/h (2 Bft)
05.06.2020 10:46 8,8 C 98 % 999,4 hPa 0,0 l/m 7,2 km/h (2 Bft) W-SW 245 8,5 C 7,8 C 12,9 km/h (3 Bft)
05.06.2020 10:45 8,9 C 98 % 999,4 hPa 0,0 l/m 4,2 km/h (1 Bft) W-SW 241 8,6 C 8,9 C 9,7 km/h (2 Bft)
05.06.2020 10:44 8,8 C 98 % 999,6 hPa 0,0 l/m 0,8 km/h (0 Bft) SO 144 8,5 C 8,8 C 4,8 km/h (1 Bft)
05.06.2020 10:43 8,8 C 98 % 999,5 hPa 0,0 l/m 1,6 km/h (1 Bft) SO 144 8,5 C 8,8 C 6,4 km/h (2 Bft)
05.06.2020 10:42 8,8 C 98 % 999,5 hPa 0,0 l/m 4,8 km/h (1 Bft) N 355 8,5 C 8,5 C 8,0 km/h (2 Bft)
05.06.2020 10:41 9,0 C 98 % 999,4 hPa 0,0 l/m 6,6 km/h (2 Bft) N 5 8,7 C 8,2 C 12,9 km/h (3 Bft)
05.06.2020 10:40 9,3 C 98 % 999,4 hPa 0,0 l/m 1,1 km/h (1 Bft) N 351 9,0 C 9,3 C 3,2 km/h (1 Bft)
05.06.2020 10:39 9,4 C 98 % 999,4 hPa 0,0 l/m 2,7 km/h (1 Bft) N 350 9,1 C 9,4 C 4,8 km/h (1 Bft)
05.06.2020 10:38 9,3 C 98 % 999,4 hPa 0,0 l/m 1,3 km/h (1 Bft) O-NO 69 9,0 C 9,3 C 3,2 km/h (1 Bft)
05.06.2020 10:37 9,2 C 98 % 999,2 hPa 0,0 l/m 5,2 km/h (1 Bft) SW 219 8,9 C 8,8 C 16,1 km/h (3 Bft)
05.06.2020 10:36 9,2 C 98 % 999,3 hPa 0,0 l/m 6,4 km/h (2 Bft) N 355 8,9 C 8,4 C 17,7 km/h (3 Bft)
05.06.2020 10:35 9,1 C 98 % 999,4 hPa 0,0 l/m 1,5 km/h (1 Bft) NO 47 8,8 C 9,1 C 6,4 km/h (2 Bft)
05.06.2020 10:34 8,9 C 98 % 999,4 hPa 0,0 l/m 4,4 km/h (1 Bft) W-NW 291 8,6 C 8,9 C 6,4 km/h (2 Bft)
05.06.2020 10:33 8,5 C 98 % 999,4 hPa 0,0 l/m 1,1 km/h (1 Bft) N-NO 33 8,2 C 8,5 C 4,8 km/h (1 Bft)
05.06.2020 10:32 8,3 C 98 % 999,2 hPa 0,0 l/m 6,4 km/h (2 Bft) N 355 8,0 C 7,4 C 8,0 km/h (2 Bft)
05.06.2020 10:31 8,2 C 98 % 999,2 hPa 0,0 l/m 4,5 km/h (1 Bft) W-NW 300 7,9 C 8,2 C 9,7 km/h (2 Bft)
05.06.2020 10:30 8,2 C 98 % 999,2 hPa 0,0 l/m 2,5 km/h (1 Bft) NW 310 7,9 C 8,2 C 6,4 km/h (2 Bft)
05.06.2020 10:29 8,2 C 98 % 999,1 hPa 0,0 l/m 4,2 km/h (1 Bft) SW 215 7,9 C 8,2 C 9,7 km/h (2 Bft)
05.06.2020 10:28 8,1 C 98 % 999,3 hPa 0,0 l/m 3,4 km/h (1 Bft) N 355 7,8 C 8,1 C 4,8 km/h (1 Bft)
05.06.2020 10:27 8,1 C 98 % 999,2 hPa 0,0 l/m 5,0 km/h (1 Bft) N 355 7,8 C 7,6 C 6,4 km/h (2 Bft)
05.06.2020 10:26 8,2 C 98 % 999,2 hPa 0,0 l/m 3,6 km/h (1 Bft) NO 51 7,9 C 8,2 C 4,8 km/h (1 Bft)
05.06.2020 10:25 8,3 C 98 % 999,3 hPa 0,0 l/m 4,0 km/h (1 Bft) NW 310 8,0 C 8,3 C 14,5 km/h (3 Bft)
05.06.2020 10:24 8,2 C 98 % 999,2 hPa 0,0 l/m 2,2 km/h (1 Bft) N 355 7,9 C 8,2 C 4,8 km/h (1 Bft)
05.06.2020 10:23 8,2 C 98 % 999,2 hPa 0,0 l/m 5,8 km/h (2 Bft) NW 321 7,9 C 7,5 C 9,7 km/h (2 Bft)
05.06.2020 10:22 8,2 C 98 % 999,1 hPa 0,0 l/m 3,6 km/h (1 Bft) N 355 7,9 C 8,2 C 8,0 km/h (2 Bft)
05.06.2020 10:21 8,3 C 98 % 999,2 hPa 0,0 l/m 3,9 km/h (1 Bft) N-NW 328 8,0 C 8,3 C 8,0 km/h (2 Bft)
05.06.2020 10:20 8,3 C 98 % 999,2 hPa 0,0 l/m 4,9 km/h (1 Bft) N-NW 334 8,0 C 7,9 C 8,0 km/h (2 Bft)
05.06.2020 10:19 8,3 C 98 % 999,2 hPa 0,0 l/m 4,7 km/h (1 Bft) W-NW 283 8,0 C 7,9 C 8,0 km/h (2 Bft)
05.06.2020 10:18 8,3 C 98 % 999,1 hPa 0,0 l/m 2,4 km/h (1 Bft) N 360 8,0 C 8,3 C 6,4 km/h (2 Bft)
05.06.2020 10:17 8,5 C 98 % 999,2 hPa 0,0 l/m 6,5 km/h (2 Bft) NW 323 8,2 C 7,6 C 12,9 km/h (3 Bft)
05.06.2020 10:16 8,5 C 98 % 999,2 hPa 0,0 l/m 3,0 km/h (1 Bft) N 355 8,2 C 8,5 C 6,4 km/h (2 Bft)
05.06.2020 10:15 8,5 C 98 % 999,2 hPa 0,0 l/m 2,0 km/h (1 Bft) SO 140 8,2 C 8,5 C 3,2 km/h (1 Bft)
05.06.2020 10:14 8,6 C 98 % 999,2 hPa 0,0 l/m 2,1 km/h (1 Bft) W-NW 298 8,3 C 8,6 C 6,4 km/h (2 Bft)
05.06.2020 10:13 8,6 C 98 % 999,2 hPa 0,0 l/m 1,9 km/h (1 Bft) S-SW 209 8,3 C 8,6 C 4,8 km/h (1 Bft)
05.06.2020 10:12 8,3 C 98 % 999,2 hPa 0,0 l/m 3,5 km/h (1 Bft) W-SW 254 8,0 C 8,3 C 6,4 km/h (2 Bft)
05.06.2020 10:11 8,4 C 98 % 999,2 hPa 0,0 l/m 6,0 km/h (2 Bft) NW 315 8,1 C 7,6 C 12,9 km/h (3 Bft)
05.06.2020 10:10 8,6 C 98 % 999,1 hPa 0,0 l/m 2,3 km/h (1 Bft) W 268 8,3 C 8,6 C 6,4 km/h (2 Bft)
05.06.2020 10:09 8,6 C 98 % 999,1 hPa 0,0 l/m 3,8 km/h (1 Bft) SW 232 8,3 C 8,6 C 8,0 km/h (2 Bft)
05.06.2020 10:08 8,3 C 98 % 999,1 hPa 0,0 l/m 1,6 km/h (1 Bft) N-NW 332 8,0 C 8,3 C 4,8 km/h (1 Bft)
05.06.2020 10:07 8,2 C 98 % 999,2 hPa 0,0 l/m 4,7 km/h (1 Bft) NW 307 7,9 C 7,8 C 8,0 km/h (2 Bft)
05.06.2020 10:06 8,2 C 98 % 999,2 hPa 0,0 l/m 2,5 km/h (1 Bft) N 355 7,9 C 8,2 C 6,4 km/h (2 Bft)
05.06.2020 10:05 8,3 C 98 % 999,2 hPa 0,0 l/m 1,7 km/h (1 Bft) S-SO 155 8,0 C 8,3 C 4,8 km/h (1 Bft)
05.06.2020 10:04 8,3 C 98 % 999,2 hPa 0,0 l/m 1,3 km/h (1 Bft) W 259 8,0 C 8,3 C 4,8 km/h (1 Bft)
05.06.2020 10:03 8,2 C 98 % 999,2 hPa 0,0 l/m 5,0 km/h (1 Bft) W 259 7,9 C 7,7 C 12,9 km/h (3 Bft)
05.06.2020 10:02 8,1 C 98 % 999,2 hPa 0,0 l/m 0,0 km/h (0 Bft) S-SO 161 7,8 C 8,1 C 0,0 km/h (0 Bft)
05.06.2020 10:01 8,0 C 98 % 999,2 hPa 0,0 l/m 0,7 km/h (0 Bft) S-SO 161 7,7 C 8,0 C 3,2 km/h (1 Bft)
05.06.2020 10:00 7,9 C 98 % 999,2 hPa 0,0 l/m 0,0 km/h (0 Bft) S-SW 206 7,6 C 7,9 C 0,0 km/h (0 Bft)
05.06.2020 09:59 7,7 C 98 % 999,2 hPa 0,0 l/m 1,3 km/h (1 Bft) S-SW 206 7,4 C 7,7 C 4,8 km/h (1 Bft)
05.06.2020 09:58 7,6 C 98 % 999,2 hPa 0,0 l/m 5,0 km/h (1 Bft) S-SW 205 7,3 C 7,0 C 8,0 km/h (2 Bft)
05.06.2020 09:57 7,6 C 98 % 999,2 hPa 0,0 l/m 6,6 km/h (2 Bft) W-SW 239 7,3 C 6,5 C 12,9 km/h (3 Bft)
05.06.2020 09:56 7,6 C 98 % 999,1 hPa 0,0 l/m 2,1 km/h (1 Bft) S-SW 211 7,3 C 7,6 C 4,8 km/h (1 Bft)
05.06.2020 09:55 7,7 C 98 % 999,1 hPa 0,0 l/m 2,2 km/h (1 Bft) W-NW 291 7,4 C 7,7 C 8,0 km/h (2 Bft)
05.06.2020 09:54 7,7 C 98 % 999,2 hPa 0,0 l/m 1,6 km/h (1 Bft) W-SW 237 7,4 C 7,7 C 6,4 km/h (2 Bft)
05.06.2020 09:53 7,8 C 98 % 999,1 hPa 0,0 l/m 3,2 km/h (1 Bft) O 98 7,5 C 7,8 C 9,7 km/h (2 Bft)
05.06.2020 09:52 7,7 C 98 % 999,2 hPa 0,0 l/m 2,1 km/h (1 Bft) W-NW 282 7,4 C 7,7 C 4,8 km/h (1 Bft)
05.06.2020 09:51 7,7 C 98 % 999,2 hPa 0,0 l/m 4,6 km/h (1 Bft) NW 309 7,4 C 7,3 C 9,7 km/h (2 Bft)
05.06.2020 09:50 7,7 C 98 % 999,2 hPa 0,0 l/m 4,6 km/h (1 Bft) N-NW 327 7,4 C 7,3 C 12,9 km/h (3 Bft)
05.06.2020 09:49 7,8 C 98 % 999,2 hPa 0,0 l/m 5,2 km/h (1 Bft) N-NW 340 7,5 C 7,2 C 8,0 km/h (2 Bft)
05.06.2020 09:48 7,8 C 98 % 999,2 hPa 0,0 l/m 4,1 km/h (1 Bft) N-NW 332 7,5 C 7,8 C 6,4 km/h (2 Bft)
05.06.2020 09:47 7,9 C 98 % 999,2 hPa 0,0 l/m 4,5 km/h (1 Bft) W 269 7,6 C 7,9 C 9,7 km/h (2 Bft)
05.06.2020 09:46 7,9 C 98 % 999,1 hPa 0,0 l/m 4,4 km/h (1 Bft) N-NW 345 7,6 C 7,9 C 9,7 km/h (2 Bft)
05.06.2020 09:45 7,9 C 98 % 999,1 hPa 0,0 l/m 0,9 km/h (0 Bft) N 9 7,6 C 7,9 C 3,2 km/h (1 Bft)
05.06.2020 09:44 7,8 C 98 % 999,1 hPa 0,0 l/m 1,9 km/h (1 Bft) N 11 7,5 C 7,8 C 4,8 km/h (1 Bft)
05.06.2020 09:43 7,9 C 98 % 999,2 hPa 0,0 l/m 4,1 km/h (1 Bft) N-NW 327 7,6 C 7,9 C 9,7 km/h (2 Bft)
05.06.2020 09:42 7,9 C 98 % 999,0 hPa 0,0 l/m 4,2 km/h (1 Bft) NW 323 7,6 C 7,9 C 8,0 km/h (2 Bft)
05.06.2020 09:41 7,9 C 98 % 999,0 hPa 0,0 l/m 0,0 km/h (0 Bft) N 5 7,6 C 7,9 C 0,0 km/h (0 Bft)
05.06.2020 09:40 7,8 C 98 % 998,9 hPa 0,0 l/m 0,0 km/h (0 Bft) N 5 7,5 C 7,8 C 0,0 km/h (0 Bft)
05.06.2020 09:39 7,7 C 98 % 999,0 hPa 0,0 l/m 0,9 km/h (0 Bft) N 5 7,4 C 7,7 C 4,8 km/h (1 Bft)
05.06.2020 09:38 7,7 C 98 % 999,0 hPa 0,0 l/m 0,0 km/h (0 Bft) NW 312 7,4 C 7,7 C 0,0 km/h (0 Bft)
05.06.2020 09:37 7,7 C 98 % 999,0 hPa 0,0 l/m 0,3 km/h (0 Bft) NW 312 7,4 C 7,7 C 1,6 km/h (1 Bft)
05.06.2020 09:36 7,7 C 98 % 999,0 hPa 0,0 l/m 2,2 km/h (1 Bft) N-NO 20 7,4 C 7,7 C 6,4 km/h (2 Bft)
05.06.2020 09:35 7,7 C 98 % 999,0 hPa 0,0 l/m 2,0 km/h (1 Bft) S-SW 197 7,4 C 7,7 C 4,8 km/h (1 Bft)
05.06.2020 09:34 7,6 C 98 % 999,0 hPa 0,0 l/m 0,1 km/h (0 Bft) N 355 7,3 C 7,6 C 1,6 km/h (1 Bft)
05.06.2020 09:33 7,6 C 98 % 999,1 hPa 0,0 l/m 3,0 km/h (1 Bft) N 355 7,3 C 7,6 C 8,0 km/h (2 Bft)
05.06.2020 09:32 7,6 C 98 % 999,0 hPa 0,0 l/m 5,0 km/h (1 Bft) NW 319 7,3 C 7,0 C 9,7 km/h (2 Bft)
05.06.2020 09:31 7,6 C 98 % 998,9 hPa 0,0 l/m 5,9 km/h (2 Bft) S-SO 167 7,3 C 6,7 C 8,0 km/h (2 Bft)
05.06.2020 09:30 7,5 C 98 % 998,9 hPa 0,0 l/m 8,3 km/h (2 Bft) N-NW 339 7,2 C 6,0 C 12,9 km/h (3 Bft)
05.06.2020 09:29 7,5 C 98 % 998,8 hPa 0,0 l/m 1,3 km/h (1 Bft) NW 316 7,2 C 7,5 C 4,8 km/h (1 Bft)
05.06.2020 09:28 7,5 C 98 % 999,0 hPa 0,0 l/m 5,5 km/h (2 Bft) W-NW 296 7,2 C 6,8 C 8,0 km/h (2 Bft)
05.06.2020 09:27 7,5 C 98 % 998,9 hPa 0,0 l/m 5,7 km/h (2 Bft) N 9 7,2 C 6,7 C 8,0 km/h (2 Bft)
05.06.2020 09:26 7,6 C 98 % 998,9 hPa 0,0 l/m 1,0 km/h (0 Bft) W-SW 238 7,3 C 7,6 C 8,0 km/h (2 Bft)
05.06.2020 09:25 7,6 C 98 % 998,8 hPa 0,0 l/m 3,4 km/h (1 Bft) N-NW 341 7,3 C 7,6 C 8,0 km/h (2 Bft)
05.06.2020 09:24 7,6 C 98 % 998,8 hPa 0,0 l/m 2,6 km/h (1 Bft) O 99 7,3 C 7,6 C 8,0 km/h (2 Bft)
05.06.2020 09:23 7,6 C 98 % 998,8 hPa 0,0 l/m 0,3 km/h (0 Bft) NW 319 7,3 C 7,6 C 1,6 km/h (1 Bft)
05.06.2020 09:22 7,6 C 98 % 998,9 hPa 0,0 l/m 2,1 km/h (1 Bft) NW 309 7,3 C 7,6 C 6,4 km/h (2 Bft)
05.06.2020 09:21 7,5 C 98 % 998,8 hPa 0,0 l/m 4,5 km/h (1 Bft) N-NW 335 7,2 C 7,5 C 8,0 km/h (2 Bft)
05.06.2020 09:20 7,5 C 98 % 998,7 hPa 0,0 l/m 2,3 km/h (1 Bft) NO 49 7,2 C 7,5 C 3,2 km/h (1 Bft)
05.06.2020 09:19 7,4 C 98 % 998,7 hPa 0,0 l/m 0,5 km/h (0 Bft) NO 50 7,1 C 7,4 C 1,6 km/h (1 Bft)
05.06.2020 09:18 7,4 C 98 % 998,7 hPa 0,0 l/m 2,5 km/h (1 Bft) NO 44 7,1 C 7,4 C 6,4 km/h (2 Bft)
05.06.2020 09:17 7,4 C 98 % 998,7 hPa 0,0 l/m 0,4 km/h (0 Bft) N-NO 24 7,1 C 7,4 C 1,6 km/h (1 Bft)
_ Min-Zeit 08:16 16:40 17:59 - 11:16 - - 08:19 08:00 11:16
Minimum _ 7,3 C 71 % 994,5 hPa - 0,0 km/h (0 Bft) - - 7,0 C 5,6 C 0,0 km/h (0 Bft)
_ Max-Zeit 16:45 02:59 10:44 01:23 08:00 - - 12:57 16:45 07:57
Maximum _ 16,7 C 98 % 999,6 hPa 0,4 l/m 11,6 km/h
N (2 Bft)
- - 12,3 C 16,7 C 24,1 km/h
N (4 Bft)
Durchschnitt _ 11,3 C 91 % 996,6 hPa #20,4 l/m 2,3 km/h (1 Bft) N - 9,8 C 11,3 C 5,7 km/h (2 Bft)
(C) Wetterstation Hinterwies